Time;durP1;ratioP1;P1;durP2;ratioP2;P2;SDS_P1;SDS_P2;PMS_P1;PMS_P2;Temp;Humidity;BMP_temperature;BMP_pressure;BME280_temperature;BME280_humidity;BME280_pressure;Samples;Min_cycle;Max_cycle;Signal;HPM_P1;HPM_P2
2021/08/16 00:01:44;;;;;;;7.83;7.20;;;25.10;47.80;;;;;;5011796;28;20252;-64
2021/08/16 00:04:09;;;;;;;7.73;7.13;;;25.10;47.70;;;;;;5012033;28;20169;-64
2021/08/16 00:06:35;;;;;;;9.73;7.77;;;25.20;47.80;;;;;;5012380;28;20602;-64
2021/08/16 00:09:00;;;;;;;8.00;7.30;;;25.10;47.80;;;;;;5015886;28;20260;-65
2021/08/16 00:11:26;;;;;;;7.63;7.03;;;25.10;47.70;;;;;;5015725;28;20170;-64
2021/08/16 00:13:51;;;;;;;8.53;7.93;;;25.20;47.80;;;;;;5015741;28;20181;-64
2021/08/16 00:16:17;;;;;;;7.80;7.30;;;25.10;47.80;;;;;;5015535;28;20173;-63
2021/08/16 00:18:47;;;;;;;10.37;8.27;;;25.10;47.80;;;;;;5015641;28;20209;-64
2021/08/16 00:21:13;;;;;;;8.43;7.63;;;25.10;47.80;;;;;;5015520;28;20181;-64
2021/08/16 00:23:38;;;;;;;8.07;7.37;;;25.10;47.70;;;;;;5015478;28;20937;-64
2021/08/16 00:26:04;;;;;;;9.63;8.73;;;25.10;47.80;;;;;;5015290;28;20173;-64
2021/08/16 00:28:29;;;;;;;8.50;7.90;;;25.10;47.80;;;;;;5015391;28;20264;-63
2021/08/16 00:30:55;;;;;;;8.60;7.80;;;25.10;47.70;;;;;;5015405;28;20256;-63
2021/08/16 00:33:20;;;;;;;8.50;7.87;;;25.10;47.70;;;;;;5015277;28;20188;-64
2021/08/16 00:35:46;;;;;;;8.70;8.00;;;25.10;47.60;;;;;;5015143;28;20236;-63
2021/08/16 00:38:12;;;;;;;8.80;8.10;;;25.10;47.70;;;;;;5015361;28;20633;-63
2021/08/16 00:40:37;;;;;;;8.37;7.77;;;25.10;47.70;;;;;;5015282;28;20173;-63
2021/08/16 00:43:03;;;;;;;8.70;7.87;;;25.10;47.70;;;;;;5015099;28;20213;-65
2021/08/16 00:45:29;;;;;;;8.53;7.73;;;25.10;47.60;;;;;;5015185;28;20173;-64
2021/08/16 00:47:54;;;;;;;8.63;8.03;;;25.10;47.60;;;;;;5014998;28;20653;-62
2021/08/16 00:50:20;;;;;;;8.53;7.93;;;25.10;47.60;;;;;;5015127;28;20574;-63
2021/08/16 00:52:46;;;;;;;8.80;7.90;;;25.10;47.60;;;;;;5014835;28;20181;-62
2021/08/16 00:55:13;;;;;;;8.67;7.97;;;25.10;47.50;;;;;;5014794;28;20285;-63
2021/08/16 00:57:40;;;;;;;9.27;8.37;;;25.10;47.60;;;;;;5014622;28;20215;-63
2021/08/16 01:00:10;;;;;;;10.63;9.60;;;25.10;47.50;;;;;;5015011;28;20780;-63
2021/08/16 01:02:40;;;;;;;9.27;8.17;;;25.10;47.50;;;;;;5014580;28;20459;-63
2021/08/16 01:05:08;;;;;;;8.90;8.20;;;25.10;47.50;;;;;;5014629;28;20404;-63
2021/08/16 01:07:34;;;;;;;9.70;8.80;;;25.10;47.40;;;;;;5014766;28;20498;-62
2021/08/16 01:10:01;;;;;;;9.63;8.93;;;25.10;47.40;;;;;;5014738;28;20415;-63
2021/08/16 01:12:29;;;;;;;8.60;7.90;;;25.10;47.50;;;;;;5014494;28;20467;-63
2021/08/16 01:14:55;;;;;;;9.17;8.47;;;25.10;47.40;;;;;;5014538;28;20777;-63
2021/08/16 01:17:20;;;;;;;8.80;8.10;;;25.10;47.40;;;;;;5013962;28;20463;-63
2021/08/16 01:19:46;;;;;;;9.37;8.33;;;25.10;47.40;;;;;;5014487;28;20914;-63
2021/08/16 01:22:11;;;;;;;9.07;7.93;;;25.10;47.40;;;;;;5014437;28;20203;-63
2021/08/16 01:24:38;;;;;;;9.60;8.87;;;25.10;47.30;;;;;;5014406;28;20169;-63
2021/08/16 01:27:11;;;;;;;8.30;7.57;;;25.10;47.30;;;;;;5014171;28;20200;-63
2021/08/16 01:29:37;;;;;;;9.40;8.70;;;25.10;47.40;;;;;;5014460;28;20512;-62
2021/08/16 01:32:04;;;;;;;8.97;8.17;;;25.10;47.40;;;;;;5014011;28;20416;-63
2021/08/16 01:34:30;;;;;;;8.83;8.10;;;25.10;47.40;;;;;;5014487;28;20419;-63
2021/08/16 01:36:56;;;;;;;8.70;8.10;;;25.10;47.30;;;;;;5013842;28;20428;-63
2021/08/16 01:39:22;;;;;;;10.50;8.20;;;25.10;48.10;;;;;;5014246;28;20416;-63
2021/08/16 01:41:48;;;;;;;9.03;8.33;;;25.10;47.30;;;;;;5013852;28;20412;-63
2021/08/16 01:44:16;;;;;;;8.43;7.73;;;25.10;47.40;;;;;;5014160;28;20418;-63
2021/08/16 01:46:43;;;;;;;9.60;7.60;;;25.10;47.90;;;;;;5013667;28;20192;-63
2021/08/16 01:49:09;;;;;;;8.70;8.00;;;25.10;47.30;;;;;;5014244;28;20418;-63
2021/08/16 01:51:35;;;;;;;9.63;8.93;;;25.10;47.20;;;;;;5014134;28;20804;-64
2021/08/16 01:54:01;;;;;;;8.50;7.90;;;25.10;47.20;;;;;;5013770;28;20204;-63
2021/08/16 01:56:26;;;;;;;8.80;8.10;;;25.10;47.20;;;;;;5013644;28;20538;-64
2021/08/16 01:58:52;;;;;;;8.57;7.90;;;25.10;47.30;;;;;;5013582;28;20251;-64
2021/08/16 02:01:18;;;;;;;9.80;9.00;;;25.10;47.20;;;;;;5013768;28;20181;-63
2021/08/16 02:03:43;;;;;;;9.73;8.93;;;25.10;47.20;;;;;;5013582;28;20719;-63
2021/08/16 02:06:09;;;;;;;8.73;8.03;;;25.10;47.30;;;;;;5013464;28;20176;-64
2021/08/16 02:08:34;;;;;;;9.30;7.40;;;25.10;47.30;;;;;;5013597;28;20174;-63
2021/08/16 02:11:00;;;;;;;7.87;7.27;;;25.10;47.20;;;;;;5013570;28;20260;-64
2021/08/16 02:13:25;;;;;;;8.47;7.80;;;25.10;47.20;;;;;;5013196;28;20260;-63
2021/08/16 02:15:51;;;;;;;9.20;8.50;;;25.10;47.30;;;;;;5012048;28;20177;-64
2021/08/16 02:18:16;;;;;;;8.40;7.73;;;25.10;47.30;;;;;;5013406;28;20655;-63
2021/08/16 02:20:42;;;;;;;10.20;9.20;;;25.10;47.30;;;;;;5013467;28;20196;-64
2021/08/16 02:23:08;;;;;;;8.73;8.13;;;25.10;47.30;;;;;;5013123;28;20216;-64
2021/08/16 02:25:33;;;;;;;10.00;8.00;;;25.10;47.20;;;;;;5013144;28;20174;-63
2021/08/16 02:27:59;;;;;;;9.40;8.60;;;25.00;47.20;;;;;;5013101;28;20193;-63
2021/08/16 02:30:25;;;;;;;8.57;7.87;;;25.10;47.30;;;;;;5012495;28;20185;-63
2021/08/16 02:32:50;;;;;;;8.77;8.00;;;25.10;47.30;;;;;;5013303;28;20578;-64
2021/08/16 02:35:16;;;;;;;9.03;8.17;;;25.00;47.20;;;;;;5013001;28;20177;-63
2021/08/16 02:37:41;;;;;;;9.37;8.67;;;25.00;47.30;;;;;;5012913;28;20193;-63
2021/08/16 02:40:10;;;;;;;9.87;9.17;;;25.10;47.30;;;;;;5012970;28;20181;-64
2021/08/16 02:42:36;;;;;;;9.27;8.57;;;25.00;47.20;;;;;;5012820;28;20595;-63
2021/08/16 02:45:03;;;;;;;8.87;8.23;;;25.10;47.40;;;;;;5012766;28;20467;-63
2021/08/16 02:47:29;;;;;;;9.17;8.50;;;25.10;47.30;;;;;;5012792;28;20424;-63
2021/08/16 02:49:54;;;;;;;9.13;8.53;;;25.00;47.20;;;;;;5012865;28;20408;-63
2021/08/16 02:52:20;;;;;;;8.90;8.20;;;25.00;47.20;;;;;;5012892;28;20184;-63
2021/08/16 02:54:46;;;;;;;9.70;8.87;;;25.00;47.30;;;;;;5012441;28;20182;-63
2021/08/16 02:57:15;;;;;;;8.60;8.00;;;25.10;47.30;;;;;;5012532;28;20201;-63
2021/08/16 02:59:41;;;;;;;8.80;8.03;;;25.00;47.30;;;;;;5012636;28;20209;-63
2021/08/16 03:02:07;;;;;;;9.30;8.70;;;25.00;47.20;;;;;;5012728;28;20486;-63
2021/08/16 03:04:34;;;;;;;9.73;8.97;;;25.00;47.20;;;;;;5012460;28;20211;-63
2021/08/16 03:07:00;;;;;;;8.63;8.03;;;25.00;47.30;;;;;;5012258;28;20511;-64
2021/08/16 03:09:27;;;;;;;8.77;8.10;;;25.00;47.30;;;;;;5012380;28;20496;-64
2021/08/16 03:11:54;;;;;;;8.57;7.93;;;25.00;47.20;;;;;;5012511;28;20412;-63
2021/08/16 03:14:19;;;;;;;8.77;8.07;;;25.00;47.30;;;;;;5012296;28;20420;-64
2021/08/16 03:16:45;;;;;;;8.67;8.07;;;25.00;47.30;;;;;;5010946;28;20809;-64
2021/08/16 03:19:10;;;;;;;9.23;8.30;;;25.00;47.30;;;;;;5012232;28;20178;-64
2021/08/16 03:21:36;;;;;;;9.03;8.30;;;25.00;47.30;;;;;;5012425;28;20192;-64
2021/08/16 03:24:02;;;;;;;8.97;8.37;;;25.00;47.20;;;;;;5011976;28;20208;-64
2021/08/16 03:26:27;;;;;;;8.87;8.17;;;25.00;47.20;;;;;;5012034;28;20193;-64
2021/08/16 03:28:52;;;;;;;10.33;9.43;;;25.00;47.20;;;;;;5012075;28;20173;-64
2021/08/16 03:31:19;;;;;;;8.53;7.73;;;25.00;47.10;;;;;;5012458;28;20593;-63
2021/08/16 03:33:45;;;;;;;8.53;7.83;;;25.00;47.10;;;;;;5012304;28;20186;-64
2021/08/16 03:36:11;;;;;;;9.23;8.43;;;25.00;47.10;;;;;;5011972;28;20433;-64
2021/08/16 03:38:37;;;;;;;9.00;8.27;;;25.00;47.10;;;;;;5012147;28;20181;-64
2021/08/16 03:41:02;;;;;;;9.03;8.23;;;25.00;47.10;;;;;;5011978;28;20404;-64
2021/08/16 03:43:28;;;;;;;9.00;8.30;;;25.00;47.00;;;;;;5012022;28;20205;-64
2021/08/16 03:45:54;;;;;;;8.30;7.70;;;25.00;47.00;;;;;;5011876;28;20567;-64
2021/08/16 03:48:20;;;;;;;9.30;8.60;;;25.00;47.00;;;;;;5011968;28;20604;-62
2021/08/16 03:50:46;;;;;;;8.67;7.97;;;25.00;46.90;;;;;;5012171;28;20177;-63
2021/08/16 03:53:11;;;;;;;8.90;8.20;;;25.00;47.00;;;;;;5011872;28;20778;-63
2021/08/16 03:55:37;;;;;;;9.07;8.37;;;25.00;47.00;;;;;;5011738;28;20181;-63
2021/08/16 03:58:02;;;;;;;8.77;8.07;;;25.00;46.90;;;;;;5006823;28;20700;-64
2021/08/16 04:00:28;;;;;;;8.80;8.20;;;25.00;46.90;;;;;;5011005;28;20204;-66
2021/08/16 04:02:53;;;;;;;8.50;7.80;;;25.10;46.90;;;;;;5020040;28;20204;-65
2021/08/16 04:05:19;;;;;;;9.07;8.17;;;25.10;46.90;;;;;;5051129;28;20208;-67
2021/08/16 04:07:45;;;;;;;8.63;7.93;;;25.10;47.00;;;;;;5051140;28;20694;-67
2021/08/16 04:10:15;;;;;;;8.53;7.93;;;25.10;47.10;;;;;;5051295;28;20619;-67
2021/08/16 04:12:41;;;;;;;8.93;8.13;;;25.10;47.00;;;;;;5045560;28;20189;-63
2021/08/16 04:15:12;;;;;;;8.43;7.80;;;25.10;47.10;;;;;;5030768;28;20427;-66
2021/08/16 04:17:38;;;;;;;8.87;8.07;;;25.10;47.20;;;;;;5047987;28;20444;-63
2021/08/16 04:20:04;;;;;;;8.20;7.50;;;25.10;47.00;;;;;;5051270;28;20497;-63
2021/08/16 04:22:30;;;;;;;9.77;9.07;;;25.00;47.00;;;;;;5050538;28;20237;-62
2021/08/16 04:24:56;;;;;;;9.43;8.60;;;25.00;47.00;;;;;;5049940;28;20430;-63
2021/08/16 04:27:21;;;;;;;9.60;8.80;;;25.00;47.10;;;;;;5050971;28;20287;-63
2021/08/16 04:29:47;;;;;;;9.10;8.40;;;25.00;47.00;;;;;;5050972;28;20168;-63
2021/08/16 04:32:12;;;;;;;9.53;8.67;;;25.00;47.00;;;;;;5050699;28;20180;-63
2021/08/16 04:34:38;;;;;;;9.23;8.30;;;25.00;46.90;;;;;;5049838;28;20211;-63
2021/08/16 04:37:04;;;;;;;9.67;8.60;;;25.00;46.90;;;;;;5050018;28;20244;-63
2021/08/16 04:39:29;;;;;;;10.10;9.07;;;25.00;46.80;;;;;;5050417;28;20259;-63
2021/08/16 04:41:55;;;;;;;9.97;9.07;;;25.00;46.70;;;;;;5050101;28;20792;-63
2021/08/16 04:44:20;;;;;;;9.40;8.70;;;25.00;46.70;;;;;;5050356;28;20588;-63
2021/08/16 04:46:46;;;;;;;8.37;7.67;;;25.00;46.60;;;;;;5050509;28;20732;-63
2021/08/16 04:49:11;;;;;;;8.47;7.77;;;25.00;46.60;;;;;;5051085;28;20176;-63
2021/08/16 04:51:37;;;;;;;9.10;8.23;;;25.00;46.60;;;;;;5051228;28;20180;-63
2021/08/16 04:54:02;;;;;;;8.87;8.27;;;25.00;46.60;;;;;;5046397;28;20557;-64
2021/08/16 04:56:28;;;;;;;9.53;8.70;;;25.00;46.60;;;;;;5053250;28;20231;-67
2021/08/16 04:58:56;;;;;;;9.40;7.77;;;25.00;46.10;;;;;;5054406;28;20223;-62
2021/08/16 05:01:22;;;;;;;8.23;7.63;;;25.00;45.80;;;;;;5026014;28;20304;-68
2021/08/16 05:03:47;;;;;;;8.13;7.37;;;25.00;45.40;;;;;;5029477;28;20926;-65
2021/08/16 05:06:13;;;;;;;10.30;7.97;;;24.90;44.60;;;;;;5014366;28;20173;-67
2021/08/16 05:08:39;;;;;;;7.70;7.07;;;25.00;44.70;;;;;;5017044;28;20184;-67
2021/08/16 05:11:05;;;;;;;11.30;7.77;;;25.00;44.70;;;;;;5022973;28;20543;-67
2021/08/16 05:13:30;;;;;;;9.07;7.97;;;25.00;44.70;;;;;;5031067;28;20216;-65
2021/08/16 05:15:56;;;;;;;10.43;8.00;;;25.00;44.70;;;;;;5034273;28;20439;-67
2021/08/16 05:18:22;;;;;;;7.57;7.07;;;24.90;44.60;;;;;;5032504;28;20270;-61
2021/08/16 05:20:49;;;;;;;8.03;7.33;;;24.90;44.60;;;;;;5033880;28;20195;-65
2021/08/16 05:23:18;;;;;;;9.40;7.83;;;25.00;44.80;;;;;;5034011;28;20236;-61
2021/08/16 05:25:44;;;;;;;10.43;8.27;;;25.00;44.70;;;;;;5033455;28;20905;-62
2021/08/16 05:28:09;;;;;;;8.17;7.53;;;25.00;44.70;;;;;;5034123;28;20446;-62
2021/08/16 05:30:35;;;;;;;8.80;6.50;;;24.90;44.50;;;;;;5033161;28;20181;-62
2021/08/16 05:33:00;;;;;;;8.23;7.43;;;24.90;44.00;;;;;;5033511;28;20550;-62
2021/08/16 05:35:26;;;;;;;8.00;6.40;;;24.90;43.70;;;;;;5033526;28;20258;-62
2021/08/16 05:37:51;;;;;;;7.10;6.50;;;24.90;43.50;;;;;;5033835;28;20192;-62
2021/08/16 05:40:17;;;;;;;8.10;7.27;;;24.90;43.30;;;;;;5033335;28;20184;-62
2021/08/16 05:42:43;;;;;;;7.63;7.03;;;24.90;43.10;;;;;;5031779;28;20205;-62
2021/08/16 05:45:10;;;;;;;7.23;6.50;;;24.90;43.10;;;;;;5032635;28;20173;-66
2021/08/16 05:47:35;;;;;;;9.07;8.17;;;24.90;42.80;;;;;;5032392;28;20200;-65
2021/08/16 05:50:04;;;;;;;11.10;6.27;;;24.90;42.70;;;;;;5032832;28;20408;-67
2021/08/16 05:52:30;;;;;;;7.33;6.73;;;24.90;42.60;;;;;;5033548;28;20215;-67
2021/08/16 05:54:55;;;;;;;7.03;6.07;;;24.90;42.50;;;;;;5033442;28;20435;-67
2021/08/16 05:57:21;;;;;;;6.73;5.90;;;24.80;42.20;;;;;;5033318;28;20201;-66
2021/08/16 05:59:47;;;;;;;6.07;5.57;;;24.80;41.70;;;;;;5033054;28;20195;-67
2021/08/16 06:02:13;;;;;;;7.00;6.30;;;24.90;41.50;;;;;;5031599;28;20820;-69
2021/08/16 06:04:38;;;;;;;6.87;6.27;;;24.90;41.40;;;;;;5032018;28;20188;-64
2021/08/16 06:07:04;;;;;;;6.13;5.63;;;24.80;41.30;;;;;;5033196;28;20200;-63
2021/08/16 06:09:29;;;;;;;7.27;6.17;;;24.80;41.20;;;;;;5032895;28;20195;-62
2021/08/16 06:11:55;;;;;;;6.33;5.73;;;24.80;41.20;;;;;;5033161;28;20180;-66
2021/08/16 06:14:21;;;;;;;8.70;6.70;;;24.80;41.10;;;;;;5033296;28;20260;-65
2021/08/16 06:16:46;;;;;;;6.97;6.30;;;24.80;41.30;;;;;;5032533;28;20247;-65
2021/08/16 06:19:12;;;;;;;6.40;5.90;;;24.80;41.50;;;;;;5032794;28;20172;-62
2021/08/16 06:21:42;;;;;;;8.97;5.30;;;24.80;41.60;;;;;;5032751;28;20679;-60
2021/08/16 06:24:11;;;;;;;6.60;6.00;;;24.80;41.60;;;;;;5032838;28;20232;-62
2021/08/16 06:26:37;;;;;;;7.47;6.40;;;24.80;41.60;;;;;;5032755;28;20432;-59
2021/08/16 06:29:04;;;;;;;7.10;6.50;;;24.80;41.40;;;;;;5032865;28;20404;-58
2021/08/16 06:31:29;;;;;;;5.50;5.10;;;24.80;40.80;;;;;;5032395;28;20431;-60
2021/08/16 06:33:55;;;;;;;5.63;5.13;;;24.80;40.60;;;;;;5032633;28;20477;-60
2021/08/16 06:36:20;;;;;;;5.53;4.93;;;24.80;40.60;;;;;;5032462;28;20351;-59
2021/08/16 06:38:47;;;;;;;6.13;5.63;;;24.80;39.70;;;;;;5032533;28;20184;-60
2021/08/16 06:41:15;;;;;;;6.13;5.53;;;24.80;39.00;;;;;;5032846;28;20185;-61
2021/08/16 06:43:41;;;;;;;5.93;5.13;;;24.70;38.70;;;;;;5032709;28;20490;-58
2021/08/16 06:46:07;;;;;;;5.83;5.33;;;24.70;38.50;;;;;;5032009;28;20442;-59
2021/08/16 06:48:32;;;;;;;7.40;6.00;;;24.70;38.70;;;;;;5032449;28;20411;-63
2021/08/16 06:50:58;;;;;;;5.20;4.80;;;24.70;38.70;;;;;;5032159;28;20195;-62
2021/08/16 06:53:23;;;;;;;5.60;5.20;;;24.70;38.80;;;;;;5037603;28;20206;-65
2021/08/16 06:55:50;;;;;;;6.50;5.83;;;24.70;38.80;;;;;;5052066;28;20591;-67
2021/08/16 06:58:16;;;;;;;5.27;4.90;;;24.70;38.80;;;;;;5052246;28;20702;-69
2021/08/16 07:00:43;;;;;;;5.20;4.80;;;24.70;38.70;;;;;;5051672;28;20510;-67
2021/08/16 07:03:10;;;;;;;6.70;5.83;;;24.70;38.60;;;;;;5046469;28;20659;-67
2021/08/16 07:05:40;;;;;;;5.53;5.03;;;24.70;38.50;;;;;;5035835;28;20444;-63
2021/08/16 07:08:06;;;;;;;14.20;6.90;;;24.70;38.60;;;;;;5048214;28;20434;-58
2021/08/16 07:10:31;;;;;;;6.90;6.20;;;24.70;39.00;;;;;;5052250;28;20460;-66
2021/08/16 07:12:58;;;;;;;8.33;5.37;;;24.70;39.20;;;;;;5051939;28;20210;-70
2021/08/16 07:15:24;;;;;;;5.23;4.83;;;24.70;38.90;;;;;;5051260;28;20175;-68
2021/08/16 07:17:49;;;;;;;4.93;4.47;;;24.70;38.30;;;;;;5051936;28;20438;-66
2021/08/16 07:20:15;;;;;;;6.03;5.20;;;24.70;38.20;;;;;;5051893;28;20196;-68
2021/08/16 07:22:40;;;;;;;6.20;5.50;;;24.70;38.40;;;;;;5051169;28;20566;-66
2021/08/16 07:25:06;;;;;;;5.57;5.17;;;24.70;38.80;;;;;;5051795;28;20249;-66
2021/08/16 07:27:32;;;;;;;4.67;4.20;;;24.70;38.90;;;;;;5051827;28;20589;-68
2021/08/16 07:29:57;;;;;;;5.67;4.57;;;24.70;39.10;;;;;;5051375;28;20494;-63
2021/08/16 07:32:23;;;;;;;6.23;5.60;;;24.70;39.00;;;;;;5051567;28;20643;-62
2021/08/16 07:34:48;;;;;;;6.70;5.70;;;24.80;39.10;;;;;;5051241;28;20176;-61
2021/08/16 07:37:15;;;;;;;6.80;5.60;;;24.80;39.60;;;;;;5051362;28;20242;-60
2021/08/16 07:39:40;;;;;;;5.33;4.83;;;24.80;39.50;;;;;;5051608;28;20187;-58
2021/08/16 07:42:06;;;;;;;5.60;5.07;;;24.80;39.90;;;;;;5051560;28;20422;-58
2021/08/16 07:44:32;;;;;;;5.30;4.80;;;24.80;39.70;;;;;;5051596;28;20172;-60
2021/08/16 07:46:59;;;;;;;5.23;4.70;;;24.80;39.90;;;;;;5051141;28;20196;-60
2021/08/16 07:49:26;;;;;;;5.73;5.23;;;24.80;39.80;;;;;;5051484;28;20877;-61
2021/08/16 07:51:51;;;;;;;5.30;4.80;;;24.80;39.60;;;;;;5051604;28;20410;-59
2021/08/16 07:54:17;;;;;;;5.20;4.80;;;24.80;39.60;;;;;;5051154;28;20409;-61
2021/08/16 07:56:44;;;;;;;4.60;4.30;;;24.80;39.40;;;;;;5051201;28;20196;-64
2021/08/16 07:59:09;;;;;;;4.73;4.43;;;24.80;40.10;;;;;;5051084;28;20438;-62
2021/08/16 08:01:35;;;;;;;6.20;4.80;;;24.80;39.50;;;;;;5043172;28;20417;-62
2021/08/16 08:04:00;;;;;;;5.00;4.60;;;24.80;39.50;;;;;;5031434;28;20205;-62
2021/08/16 08:06:26;;;;;;;4.83;4.33;;;24.80;39.40;;;;;;5031520;28;20199;-61
2021/08/16 08:08:52;;;;;;;4.83;4.40;;;24.80;39.60;;;;;;5031524;28;20180;-67
2021/08/16 08:11:17;;;;;;;4.80;4.40;;;24.80;39.40;;;;;;5031611;28;20457;-60
2021/08/16 08:13:43;;;;;;;6.50;4.47;;;24.80;39.40;;;;;;5031655;28;20544;-62
2021/08/16 08:16:08;;;;;;;4.87;4.47;;;24.80;39.40;;;;;;5031322;28;20179;-62
2021/08/16 08:18:34;;;;;;;4.77;4.40;;;24.80;39.40;;;;;;5031308;28;20196;-62
2021/08/16 08:21:00;;;;;;;4.40;4.00;;;24.80;39.30;;;;;;5031400;28;20184;-61
2021/08/16 08:23:25;;;;;;;3.93;3.63;;;24.80;39.40;;;;;;5031301;28;20292;-57
2021/08/16 08:25:51;;;;;;;5.17;4.30;;;24.80;40.10;;;;;;5031250;28;20416;-59
2021/08/16 08:28:16;;;;;;;5.80;4.83;;;24.80;40.10;;;;;;5033418;28;20216;-61
2021/08/16 08:30:43;;;;;;;5.00;4.60;;;24.80;40.00;;;;;;5034750;28;20176;-62
2021/08/16 08:33:11;;;;;;;4.67;4.27;;;24.80;39.50;;;;;;5034912;28;20230;-61
2021/08/16 08:35:37;;;;;;;4.50;4.10;;;24.80;39.50;;;;;;5034976;28;20411;-59
2021/08/16 08:38:03;;;;;;;5.93;4.97;;;24.80;39.10;;;;;;5035056;28;20432;-59
2021/08/16 08:40:29;;;;;;;4.30;4.00;;;24.80;38.90;;;;;;5034939;28;20423;-61
2021/08/16 08:42:55;;;;;;;4.60;4.20;;;24.80;38.90;;;;;;5034878;28;20206;-61
2021/08/16 08:45:25;;;;;;;4.73;4.30;;;24.80;39.00;;;;;;5041766;28;20186;-61
2021/08/16 08:47:52;;;;;;;4.50;4.00;;;24.80;39.20;;;;;;5054730;28;20774;-59
2021/08/16 08:50:18;;;;;;;4.60;4.20;;;24.80;39.40;;;;;;5054944;28;20421;-59
2021/08/16 08:52:45;;;;;;;4.53;4.10;;;24.80;39.20;;;;;;5054935;28;20744;-61
2021/08/16 08:55:12;;;;;;;4.23;3.93;;;24.80;38.80;;;;;;5038408;28;20427;-62
2021/08/16 08:57:38;;;;;;;4.90;4.40;;;24.80;38.60;;;;;;5034109;28;20546;-61
2021/08/16 09:00:05;;;;;;;7.17;4.70;;;24.90;38.60;;;;;;5034449;28;20507;-62
2021/08/16 09:02:31;;;;;;;5.53;4.90;;;24.90;38.50;;;;;;5034584;28;20802;-63
2021/08/16 09:04:57;;;;;;;4.50;4.10;;;24.80;38.10;;;;;;5034335;28;20454;-61
2021/08/16 09:07:36;;;;;;;5.27;4.50;;;24.90;38.20;;;;;;5034392;28;20593;-61
2021/08/16 09:10:04;;;;;;;4.37;3.97;;;24.90;38.00;;;;;;5034502;28;20218;-63
2021/08/16 09:12:35;;;;;;;8.00;4.63;;;24.90;38.00;;;;;;5034166;28;20851;-60
2021/08/16 09:15:03;;;;;;;5.10;4.60;;;24.90;37.90;;;;;;5034242;28;20908;-62
2021/08/16 09:17:33;;;;;;;4.97;4.47;;;24.90;38.00;;;;;;5034183;28;20529;-64
2021/08/16 09:20:16;;;;;;;4.73;4.30;;;24.90;38.20;;;;;;5034399;28;20411;-60
2021/08/16 09:22:41;;;;;;;7.43;4.53;;;24.90;37.90;;;;;;5034190;28;20936;-63
2021/08/16 09:25:11;;;;;;;4.43;4.13;;;24.80;37.70;;;;;;5033678;28;20487;-60
2021/08/16 09:27:46;;;;;;;5.33;4.93;;;24.80;37.60;;;;;;5034215;28;20197;-62
2021/08/16 09:30:13;;;;;;;5.70;5.20;;;24.90;37.70;;;;;;5033893;28;20410;-62
2021/08/16 09:32:40;;;;;;;5.33;4.83;;;24.90;38.60;;;;;;5034103;28;20784;-61
2021/08/16 09:35:11;;;;;;;4.90;4.27;;;24.80;38.80;;;;;;5033718;28;20419;-64
2021/08/16 09:37:38;;;;;;;5.30;4.80;;;24.80;38.40;;;;;;5033899;28;20467;-64
2021/08/16 09:40:11;;;;;;;5.60;5.10;;;24.90;38.10;;;;;;5033447;28;20921;-64
2021/08/16 09:42:51;;;;;;;4.53;4.13;;;24.80;37.90;;;;;;5033767;28;20457;-64
2021/08/16 09:45:37;;;;;;;4.80;4.40;;;24.80;38.20;;;;;;5033189;28;20407;-63
2021/08/16 09:48:04;;;;;;;5.27;4.77;;;24.80;37.10;;;;;;5033645;28;20427;-64
2021/08/16 09:50:44;;;;;;;4.57;4.17;;;24.80;36.70;;;;;;5033654;28;20412;-61
2021/08/16 09:53:13;;;;;;;4.40;4.00;;;24.80;36.50;;;;;;5033645;28;20820;-63
2021/08/16 09:55:41;;;;;;;6.23;4.40;;;24.80;36.60;;;;;;5033213;28;20429;-64
2021/08/16 09:58:08;;;;;;;4.87;4.23;;;24.80;36.50;;;;;;5033372;28;20458;-62
2021/08/16 10:00:35;;;;;;;4.77;4.27;;;24.80;36.90;;;;;;5033382;28;20422;-64
2021/08/16 10:03:03;;;;;;;5.43;4.60;;;24.80;36.90;;;;;;5032944;28;20462;-62
2021/08/16 10:05:30;;;;;;;7.83;5.37;;;24.80;36.60;;;;;;5033231;28;20411;-60
2021/08/16 10:07:57;;;;;;;5.40;4.57;;;24.80;36.50;;;;;;5033266;28;20431;-63
2021/08/16 10:10:22;;;;;;;5.30;4.70;;;24.80;36.40;;;;;;5033346;28;20921;-59
2021/08/16 10:12:48;;;;;;;4.73;4.27;;;24.80;37.20;;;;;;5033083;28;20413;-60
2021/08/16 10:15:14;;;;;;;4.90;4.40;;;24.80;37.90;;;;;;5032955;28;20705;-56
2021/08/16 10:17:42;;;;;;;4.20;3.80;;;24.80;37.70;;;;;;5033003;28;20227;-58
2021/08/16 10:20:09;;;;;;;6.10;4.20;;;24.80;37.00;;;;;;5033143;28;20181;-59
2021/08/16 10:22:36;;;;;;;5.07;4.00;;;24.80;37.10;;;;;;5032957;28;20542;-57
2021/08/16 10:25:28;;;;;;;7.70;4.33;;;24.80;37.20;;;;;;5032643;28;20771;-60
2021/08/16 10:28:01;;;;;;;5.40;3.77;;;24.80;36.80;;;;;;5025194;28;20508;-68
2021/08/16 10:30:27;;;;;;;4.20;3.80;;;24.80;36.80;;;;;;5052774;28;20460;-66
2021/08/16 10:33:02;;;;;;;6.73;4.20;;;24.80;36.70;;;;;;5052764;28;20414;-66
2021/08/16 10:35:39;;;;;;;5.17;4.73;;;24.80;37.10;;;;;;5052192;28;20414;-61
2021/08/16 10:38:08;;;;;;;5.40;3.70;;;24.80;37.30;;;;;;5052038;28;20430;-61
2021/08/16 10:40:45;;;;;;;5.30;4.80;;;24.80;36.70;;;;;;5052541;28;20448;-60
2021/08/16 10:43:12;;;;;;;4.83;4.30;;;24.80;36.90;;;;;;5052240;28;20461;-60
2021/08/16 10:45:52;;;;;;;4.60;4.20;;;24.80;36.50;;;;;;5032463;28;20411;-61
2021/08/16 10:48:27;;;;;;;4.53;3.73;;;24.80;36.20;;;;;;5032332;28;20423;-62
2021/08/16 10:51:08;;;;;;;4.43;3.60;;;24.80;36.00;;;;;;5031845;28;20417;-62
2021/08/16 10:53:52;;;;;;;4.20;3.67;;;24.80;36.20;;;;;;5032450;28;20418;-63
2021/08/16 10:56:24;;;;;;;3.70;3.40;;;24.80;36.30;;;;;;5031776;28;20514;-60
2021/08/16 10:58:52;;;;;;;4.07;3.73;;;24.80;35.90;;;;;;5032041;28;20507;-60
2021/08/16 11:01:35;;;;;;;5.30;4.00;;;24.80;36.30;;;;;;5032447;28;20414;-59
2021/08/16 11:04:03;;;;;;;4.93;3.63;;;24.90;36.20;;;;;;5031534;28;20806;-65
2021/08/16 11:06:29;;;;;;;4.17;3.67;;;24.90;36.00;;;;;;5032028;28;20873;-63
2021/08/16 11:08:59;;;;;;;4.17;3.77;;;24.80;36.80;;;;;;5031803;28;20412;-61
2021/08/16 11:11:24;;;;;;;4.37;3.97;;;24.80;37.10;;;;;;5031791;28;20781;-60
2021/08/16 11:14:01;;;;;;;5.53;3.87;;;24.80;36.40;;;;;;5032120;28;20419;-61
2021/08/16 11:16:27;;;;;;;4.67;4.10;;;24.80;35.90;;;;;;5031985;28;20283;-61
2021/08/16 11:18:54;;;;;;;4.67;3.57;;;24.80;35.90;;;;;;5050877;28;20985;-61
2021/08/16 11:21:21;;;;;;;5.20;3.13;;;24.90;36.00;;;;;;5051912;28;20187;-61
2021/08/16 11:23:59;;;;;;;4.27;3.87;;;24.90;35.70;;;;;;5051162;28;20458;-62
2021/08/16 11:26:26;;;;;;;4.00;3.20;;;24.90;35.40;;;;;;5051469;28;20426;-63
2021/08/16 11:29:03;;;;;;;6.17;4.20;;;25.00;35.40;;;;;;5051734;28;20414;-63
2021/08/16 11:31:29;;;;;;;4.80;3.43;;;24.90;35.20;;;;;;5051620;28;20417;-60
2021/08/16 11:34:06;;;;;;;4.53;3.57;;;24.90;35.40;;;;;;5051478;28;20493;-61
2021/08/16 11:36:33;;;;;;;4.33;3.53;;;24.90;35.10;;;;;;5051403;28;20253;-62
2021/08/16 11:38:59;;;;;;;3.80;3.40;;;24.90;35.40;;;;;;5051864;28;20429;-61
2021/08/16 11:41:29;;;;;;;3.60;3.30;;;24.90;35.30;;;;;;5051236;28;20422;-61
2021/08/16 11:43:55;;;;;;;4.63;3.60;;;24.90;34.80;;;;;;5051512;28;20303;-60
2021/08/16 11:46:20;;;;;;;4.20;3.80;;;24.90;34.80;;;;;;5051236;28;20976;-60
2021/08/16 11:48:53;;;;;;;5.30;3.20;;;24.90;34.60;;;;;;5051020;28;20220;-61
2021/08/16 11:51:20;;;;;;;7.20;3.37;;;24.90;34.70;;;;;;5051485;28;20176;-59
2021/08/16 11:53:48;;;;;;;6.73;3.67;;;25.00;34.60;;;;;;5051310;28;20421;-63
2021/08/16 11:56:14;;;;;;;4.13;3.73;;;24.90;34.40;;;;;;5050940;28;20414;-61
2021/08/16 11:58:42;;;;;;;4.03;3.43;;;25.00;34.40;;;;;;5051301;28;20538;-62
2021/08/16 12:01:09;;;;;;;3.70;3.40;;;25.00;34.50;;;;;;5051654;28;20433;-60
2021/08/16 12:03:36;;;;;;;3.50;3.20;;;25.00;34.50;;;;;;5049438;28;20463;-62
2021/08/16 12:06:03;;;;;;;5.50;3.70;;;25.00;34.30;;;;;;5035446;28;20486;-63
2021/08/16 12:08:29;;;;;;;5.23;3.43;;;25.00;34.20;;;;;;5025793;28;21006;-62
2021/08/16 12:10:54;;;;;;;4.43;3.70;;;25.00;34.20;;;;;;5034973;28;20399;-62
2021/08/16 12:13:24;;;;;;;4.30;3.90;;;25.00;34.20;;;;;;5035430;28;20705;-62
2021/08/16 12:15:52;;;;;;;6.57;3.50;;;25.00;34.20;;;;;;5034988;28;20415;-61
2021/08/16 12:18:26;;;;;;;4.57;4.17;;;24.90;34.20;;;;;;5034760;28;20431;-58
2021/08/16 12:20:52;;;;;;;6.40;3.67;;;24.90;34.20;;;;;;5023180;28;20915;-61
2021/08/16 12:23:33;;;;;;;4.40;4.00;;;24.90;34.20;;;;;;5025801;28;20454;-61
2021/08/16 12:25:59;;;;;;;3.70;3.40;;;25.00;34.30;;;;;;5023398;28;20412;-59
2021/08/16 12:28:44;;;;;;;4.00;3.53;;;25.00;34.30;;;;;;5022980;28;20430;-57
2021/08/16 12:31:18;;;;;;;3.80;3.50;;;25.00;34.20;;;;;;5025123;28;20770;-66
2021/08/16 12:34:04;;;;;;;3.80;3.50;;;25.00;34.50;;;;;;5023379;28;20691;-62
2021/08/16 12:36:36;;;;;;;4.00;3.60;;;25.00;34.20;;;;;;5015008;28;20531;-64
2021/08/16 12:39:09;;;;;;;4.63;3.70;;;25.00;34.20;;;;;;5015422;28;20439;-65
2021/08/16 12:41:35;;;;;;;5.47;3.70;;;24.90;34.20;;;;;;5014719;28;20435;-63
2021/08/16 12:44:01;;;;;;;4.57;4.00;;;25.00;35.00;;;;;;5014869;28;20464;-65
2021/08/16 12:46:36;;;;;;;7.33;3.93;;;25.00;34.20;;;;;;5018580;28;20196;-65